Terminal Aerodrome Forecast
Issued by NWS

Home | Current Version | Previous Version | Text Only | Print | Product List | Glossary On
Versions: 1 2 3 4 5 6 7 8 9 10 11 12 13 14 15 16
000
FTUS41 KBTV 131740 CCA
TAFMSS
TAF COR
KMSS 131740Z 1318/1418 26015G24KT P6SM DRSN OVC022
      TEMPO 1318/1321 2SM BLSN
     FM132100 26015G23KT 6SM BLSN BR SCT025
     FM140100 25011G19KT P6SM SKC
     FM140400 25007KT P6SM FEW200
     FM141700 25011KT P6SM FEW250=

USA.gov is the U.S. government's official web portal to all federal, state and local government web resources and services.